Flight Track Log - Related Links

Times and Time Zones

All times are in EDT time to prevent confusion due to time zone crossing. See the CPA91 flight status page for this flight to view local times or setup timezone preferences in your user account.

Time Position Orientation Groundspeed Altitude Reporting Facility
EDT Latitude Longitude Course Direction KTS MPH feet Rate Location/Type
Wed 02:49:26 AM 32.8656 -97.0542 181° South 139 160 1,600  Level FAA TRACON SMA TRACON (SMA)
Wed 02:50:06 AM 32.8406 -97.0547 184° South 147 169 2,100 815 Climbing FAA TRACON SMA TRACON (SMA)
Wed 02:50:47 AM 32.8058 -97.0575 236° Southwest 188 216 2,700 1,200 Climbing FAA TRACON SMA TRACON (SMA)
Wed 02:51:26 AM 32.7839 -97.0964 279° West 235 270 3,700 1,975 Climbing FAA TRACON SMA TRACON (SMA)
Wed 02:52:06 AM 32.7911 -97.1481 279° West 255 293 5,300 2,325 Climbing FAA TRACON SMA TRACON (SMA)
Wed 02:52:46 AM 32.7989 -97.2075 279° West 267 307 6,800 2,400 Climbing FAA TRACON SMA TRACON (SMA)
Wed 02:53:26 AM 32.8075 -97.2714 278° West 283 326 8,500 2,370 Climbing FAA TRACON SMA TRACON (SMA)
Wed 02:54:07 AM 32.8142 -97.3286 279° West 286 329 10,000 1,899 Climbing FAA TRACON SMA TRACON (SMA)
Wed 02:54:45 AM 32.8231 -97.3972 279° West 308 354 11,000 1,275 Climbing FAA TRACON SMA TRACON (SMA)
Wed 02:55:27 AM 32.8328 -97.4742 279° West 346 398 11,700 1,185 Climbing FAA TRACON SMA TRACON (SMA)
Wed 02:56:06 AM 32.8422 -97.5489 281° West 374 430 12,600 1,823 Climbing FAA TRACON SMA TRACON (SMA)
Wed 02:56:46 AM 32.8561 -97.6364 280° West 389 448 14,100 2,250 Climbing FAA TRACON SMA TRACON (SMA)
Wed 02:57:26 AM 32.8689 -97.7250 280° West 394 453 15,600 2,000 Climbing FAA TRACON SMA TRACON (SMA)
Wed 02:58:07 AM 32.8814 -97.8058 279° West 404 465 16,800 2,000 Climbing FAA TRACON SMA TRACON (SMA)
Wed 02:58:47 AM 32.8944 -97.8992 280° West 415 478 18,300 2,127 Climbing FAA TRACON SMA TRACON (SMA)
Wed 02:59:26 AM 32.9075 -97.9833 279° West 419 482 19,600 1,975 Climbing FAA TRACON SMA TRACON (SMA)
Wed 03:00:06 AM 32.9200 -98.0792 280° West 425 489 20,900 1,800 Climbing FAA TRACON SMA TRACON (SMA)
Wed 03:00:46 AM 32.9344 -98.1761 279° West 431 496 22,000 1,714 Climbing FAA TRACON SMA TRACON (SMA)
Wed 03:01:23 AM 32.9453 -98.2600 278° West 428 493 23,100 1,546 Climbing Fort Worth Center
Wed 03:02:23 AM 32.9631 -98.4064 280° West 444 511 24,500 1,400 Climbing Fort Worth Center
Wed 03:03:23 AM 32.9828 -98.5353 279° West 443 510 25,900 1,350 Climbing Fort Worth Center
Wed 03:04:23 AM 33.0022 -98.6817 280° West 449 517 27,200 1,600 Climbing Fort Worth Center
Wed 03:05:23 AM 33.0236 -98.8331 280° West 455 524 29,100 2,000 Climbing Fort Worth Center
Wed 03:06:23 AM 33.0447 -98.9797 279° West 455 524 31,200 1,450 Climbing Fort Worth Center
Wed 03:07:23 AM 33.0639 -99.1264 280° West 455 524 32,000 400 Climbing Fort Worth Center
Wed 03:08:23 AM 33.0847 -99.2731 279° West 455 524 32,000  Level Fort Worth Center
Wed 03:09:23 AM 33.1033 -99.4197 279° West 455 524 32,000  Level Fort Worth Center
Wed 03:10:23 AM 33.1217 -99.5639 280° West 450 518 32,000  Level Fort Worth Center
Wed 03:11:23 AM 33.1422 -99.7083 278° West 445 512 32,000  Level Fort Worth Center
Wed 03:12:23 AM 33.1603 -99.8553 278° West 445 512 32,000  Level Fort Worth Center
Wed 03:13:23 AM 33.1781 -100.0044 278° West 445 512 32,000  Level Fort Worth Center
Wed 03:14:23 AM 33.1958 -100.1517 278° West 445 512 32,000  Level Fort Worth Center
Wed 03:15:23 AM 33.2133 -100.2961 277° West 445 512 32,000  Level Fort Worth Center
Wed 03:16:23 AM 33.2289 -100.4406 279° West 445 512 32,000  Level Fort Worth Center
Wed 03:17:23 AM 33.2481 -100.5903 278° West 445 512 32,000  Level Fort Worth Center
Wed 03:18:23 AM 33.2653 -100.7325 278° West 445 512 32,000  Level Fort Worth Center
Wed 03:19:23 AM 33.2822 -100.8797 277° West 445 512 32,000  Level Fort Worth Center
Wed 03:20:23 AM 33.2969 -101.0244 279° West 440 506 32,000  Level Fort Worth Center
Wed 03:21:23 AM 33.3172 -101.1844 279° West 445 512 32,000  Level Fort Worth Center
Wed 03:22:23 AM 33.3342 -101.3144 277° West 445 512 32,000  Level Fort Worth Center
Wed 03:23:23 AM 33.3500 -101.4742 276° West 445 512 32,000  Level Fort Worth Center
Wed 03:24:23 AM 33.3622 -101.6042 278° West 445 512 32,000  Level Fort Worth Center
Wed 03:25:23 AM 33.3797 -101.7642 278° West 451 519 32,000  Level Fort Worth Center
Wed 03:26:23 AM 33.3958 -101.9017 277° West 451 519 32,000  Level Fort Worth Center
Wed 03:27:23 AM 33.4128 -102.0644 279° West 451 519 32,000  Level Fort Worth Center
Wed 03:28:23 AM 33.4306 -102.2047 277° West 468 539 32,000  Level Fort Worth Center
Wed 03:29:23 AM 33.4472 -102.3672 277° West 468 539 32,000  Level Fort Worth Center
Wed 03:30:23 AM 33.4639 -102.5200 277° West 468 539 32,000  Level Fort Worth Center
Wed 03:32:29 AM 33.4981 -102.8369 277° West 487 560 32,000  Level Albuquerque Center
Wed 03:33:29 AM 33.5117 -102.9781 277° West 472 543 32,000  Level Albuquerque Center
Wed 03:34:29 AM 33.5275 -103.1267 275° West 457 526 32,000  Level Albuquerque Center
Wed 03:35:29 AM 33.5386 -103.2708 277° West 457 526 32,000  Level Albuquerque Center
Wed 03:36:29 AM 33.5542 -103.4219 277° West 452 520 32,000  Level Albuquerque Center
Wed 03:37:29 AM 33.5692 -103.5658 275° West 452 520 32,000  Level Albuquerque Center
Wed 03:38:29 AM 33.5800 -103.7122 277° West 447 514 32,000  Level Albuquerque Center
Wed 03:39:29 AM 33.5953 -103.8711 277° West 440 506 32,000  Level Albuquerque Center
Wed 03:40:29 AM 33.6100 -104.0178 276° West 440 506 32,000  Level Albuquerque Center
Wed 03:41:29 AM 33.6222 -104.1619 275° West 440 506 32,000  Level Albuquerque Center
Wed 03:42:29 AM 33.6322 -104.3111 277° West 440 506 32,000  Level Albuquerque Center
Wed 03:43:29 AM 33.6464 -104.4578 277° West 440 506 32,000  Level Albuquerque Center
Wed 03:44:29 AM 33.6603 -104.6019 274° West 445 512 32,000  Level Albuquerque Center
Wed 03:45:29 AM 33.6697 -104.7514 276° West 445 512 32,000  Level Albuquerque Center
Wed 03:46:29 AM 33.6811 -104.8858 276° West 445 512 32,000  Level Albuquerque Center
Wed 03:47:29 AM 33.6947 -105.0450 277° West 445 512 32,000  Level Albuquerque Center
Wed 03:48:29 AM 33.7075 -105.1769 274° West 445 512 32,000  Level Albuquerque Center
Wed 03:49:29 AM 33.7167 -105.3414 277° West 445 512 32,000  Level Albuquerque Center
Wed 03:50:29 AM 33.7292 -105.4711 275° West 445 512 32,000  Level Albuquerque Center
Wed 03:51:29 AM 33.7397 -105.6156 278° West 445 512 32,000  Level Albuquerque Center
Wed 03:52:29 AM 33.7564 -105.7678 274° West 445 512 32,000  Level Albuquerque Center
Wed 03:53:29 AM 33.7647 -105.9150 276° West 445 512 32,000  Level Albuquerque Center
Wed 03:54:29 AM 33.7767 -106.0647 276° West 445 512 32,000  Level Albuquerque Center
Wed 03:55:29 AM 33.7886 -106.2144 275° West 445 512 32,000  Level Albuquerque Center
Wed 03:56:29 AM 33.7983 -106.3592 274° West 440 506 32,000  Level Albuquerque Center
Wed 03:57:29 AM 33.8078 -106.5064 275° West 446 513 32,000  Level Albuquerque Center
Wed 03:58:29 AM 33.8192 -106.6514 274° West 441 507 32,000  Level Albuquerque Center
Wed 03:59:29 AM 33.8283 -106.7936 274° West 441 507 32,000  Level Albuquerque Center
Wed 04:00:29 AM 33.8372 -106.9411 275° West 441 507 32,000  Level Albuquerque Center
Wed 04:01:29 AM 33.8481 -107.1061 275° West 448 516 32,000  Level Albuquerque Center
Wed 04:02:29 AM 33.8589 -107.2511 274° West 448 516 32,000  Level Albuquerque Center
Wed 04:03:29 AM 33.8672 -107.3961 274° West 443 510 32,000  Level Albuquerque Center
Wed 04:04:29 AM 33.8753 -107.5461 274° West 443 510 32,000  Level Albuquerque Center
Wed 04:05:29 AM 33.8833 -107.6939 275° West 443 510 32,000  Level Albuquerque Center
Wed 04:06:29 AM 33.8933 -107.8414 274° West 443 510 32,000  Level Albuquerque Center
Wed 04:07:29 AM 33.9011 -107.9917 274° West 443 510 32,000  Level Albuquerque Center
Wed 04:08:29 AM 33.9106 -108.1394 277° West 443 510 32,000  Level Albuquerque Center
Wed 04:09:29 AM 33.9242 -108.2822 273° West 437 503 32,000  Level Albuquerque Center
Wed 04:10:29 AM 33.9314 -108.4272 274° West 442 509 32,000  Level Albuquerque Center
Wed 04:11:29 AM 33.9403 -108.5778 273° West 442 509 32,000  Level Albuquerque Center
Wed 04:12:29 AM 33.9469 -108.7231 274° West 442 509 32,000  Level Albuquerque Center
Wed 04:13:29 AM 33.9558 -108.8708 273° West 447 514 32,000  Level Albuquerque Center
Wed 04:14:29 AM 33.9622 -109.0011 273° West 441 507 32,000  Level Albuquerque Center
Wed 04:15:29 AM 33.9686 -109.1439 274° West 441 507 32,000  Level Albuquerque Center
Wed 04:16:29 AM 33.9769 -109.2869 273° West 441 507 32,000  Level Albuquerque Center
Wed 04:17:29 AM 33.9828 -109.4322 273° West 436 502 32,000  Level Albuquerque Center
Wed 04:18:29 AM 33.9886 -109.5753 274° West 436 502 32,000  Level Albuquerque Center
Wed 04:19:29 AM 33.9961 -109.7206 273° West 436 502 32,000  Level Albuquerque Center
Wed 04:20:29 AM 34.0017 -109.8661 273° West 442 509 32,000  Level Albuquerque Center
Wed 04:21:29 AM 34.0069 -110.0092 273° West 442 509 32,000  Level Albuquerque Center
Wed 04:22:29 AM 34.0139 -110.1547 272° West 442 509 32,000  Level Albuquerque Center
Wed 04:23:29 AM 34.0189 -110.3000 272° West 442 509 32,000  Level Albuquerque Center
Wed 04:24:29 AM 34.0231 -110.4631 273° West 447 514 32,000  Level Albuquerque Center
Wed 04:25:29 AM 34.0297 -110.6036 274° West 442 509 32,000  Level Albuquerque Center
Wed 04:26:29 AM 34.0367 -110.7367 273° West 437 503 32,000  Level Albuquerque Center
Wed 04:27:29 AM 34.0428 -110.8822 272° West 442 509 32,000  Level Albuquerque Center
Wed 04:28:29 AM 34.0467 -111.0303 271° West 442 509 32,000  Level Albuquerque Center
Wed 04:29:29 AM 34.0483 -111.1758 273° West 442 509 32,000  Level Albuquerque Center
Wed 04:30:29 AM 34.0542 -111.3189 273° West 442 509 32,000  Level Albuquerque Center
Wed 04:31:29 AM 34.0597 -111.4622 271° West 437 503 32,000  Level Albuquerque Center
Wed 04:32:29 AM 34.0625 -111.6253 273° West 446 513 32,000  Level Albuquerque Center
Wed 04:33:29 AM 34.0681 -111.7583 272° West 441 507 32,000  Level Albuquerque Center
Wed 04:34:29 AM 34.0725 -111.9167 271° West 441 507 32,000  Level Albuquerque Center
Wed 04:35:29 AM 34.0753 -112.0647 272° West 441 507 32,000  Level Albuquerque Center
Wed 04:36:29 AM 34.0783 -112.1978 273° West 441 507 32,000  Level Albuquerque Center
Wed 04:37:29 AM 34.0842 -112.3611 272° West 446 513 32,000  Level Albuquerque Center
Wed 04:38:29 AM 34.0869 -112.4914 271° West 441 507 32,000  Level Albuquerque Center
Wed 04:39:29 AM 34.0881 -112.6547 271° West 441 507 32,000  Level Albuquerque Center
Wed 04:40:29 AM 34.0897 -112.8028 272° West 441 507 32,000  Level Albuquerque Center
Wed 04:41:29 AM 34.0942 -112.9333 270° West 441 507 32,000  Level Albuquerque Center
Wed 04:42:29 AM 34.0936 -113.0789 271° West 441 507 32,000  Level Albuquerque Center
Wed 04:43:29 AM 34.0967 -113.2294 271° West 441 507 32,000  Level Albuquerque Center
Wed 04:44:29 AM 34.0997 -113.3778 271° West 446 513 32,000  Level Albuquerque Center
Wed 04:46:42 AM 34.1056 -113.7078 267° West 443 510 32,000  Level Los Angeles Center
Wed 04:47:42 AM 34.1000 -113.8533 267° West 443 510 32,000  Level Los Angeles Center
Wed 04:48:42 AM 34.0944 -114.0017 266° West 443 510 32,000  Level Los Angeles Center
Wed 04:49:42 AM 34.0864 -114.1497 269° West 443 510 32,000  Level Los Angeles Center
Wed 04:50:42 AM 34.0844 -114.2978 268° West 443 510 32,000  Level Los Angeles Center
Wed 04:51:42 AM 34.0806 -114.4483 267° West 443 510 32,000  Level Los Angeles Center
Wed 04:52:42 AM 34.0739 -114.5914 268° West 443 510 32,000  Level Los Angeles Center
Wed 04:53:42 AM 34.0694 -114.7419 268° West 443 510 32,000  Level Los Angeles Center
Wed 04:54:42 AM 34.0647 -114.8900 268° West 443 510 32,000  Level Los Angeles Center
Wed 04:55:42 AM 34.0600 -115.0381 266° West 443 510 32,000  Level Los Angeles Center
Wed 04:56:42 AM 34.0508 -115.1836 268° West 443 510 32,000  Level Los Angeles Center
Wed 04:57:42 AM 34.0456 -115.3314 267° West 443 510 32,000  Level Los Angeles Center
Wed 04:58:42 AM 34.0381 -115.4819 267° West 443 510 32,000  Level Los Angeles Center
Wed 04:59:42 AM 34.0325 -115.6300 267° West 443 510 32,000  Level Los Angeles Center
Wed 05:00:42 AM 34.0267 -115.7778 267° West 443 510 32,000  Level Los Angeles Center
Wed 05:01:42 AM 34.0208 -115.9283 266° West 443 510 32,000  Level Los Angeles Center
Wed 05:02:42 AM 34.0125 -116.0786 267° West 443 510 32,000 -100 Level Los Angeles Center
Wed 05:03:42 AM 34.0061 -116.2239 265° West 443 510 31,800 -1,150 Descending Los Angeles Center
Wed 05:04:42 AM 33.9956 -116.3692 267° West 443 510 29,700 -2,250 Descending Los Angeles Center
Wed 05:05:42 AM 33.9889 -116.5119 268° West 443 510 27,300 -2,400 Descending Los Angeles Center
Wed 05:06:42 AM 33.9842 -116.6522 266° West 438 504 24,900 -2,400 Descending Los Angeles Center
Wed 05:07:42 AM 33.9753 -116.8050 265° West 438 504 22,500 -2,400 Descending Los Angeles Center
Wed 05:08:42 AM 33.9658 -116.9428 266° West 420 483 20,100 -2,350 Descending Los Angeles Center
Wed 05:09:42 AM 33.9586 -117.0728 266° West 409 471 17,800 -1,550 Descending Los Angeles Center
Wed 05:10:42 AM 33.9514 -117.1981 262° West 398 458 17,000 -400 Descending Los Angeles Center
Wed 05:11:42 AM 33.9378 -117.3206 265° West 380 437 17,000  Level Los Angeles Center
Wed 05:12:42 AM 33.9281 -117.4431 269° West 375 432 17,000 -100 Level Los Angeles Center
Wed 05:13:42 AM 33.9267 -117.5658 279° West 370 426 16,800 -550 Descending Los Angeles Center
Wed 05:14:42 AM 33.9400 -117.6736 279° West 365 420 15,900 -1,050 Descending Los Angeles Center
Wed 05:15:42 AM 33.9553 -117.7942 275° West 365 420 14,700 -1,200 Descending Los Angeles Center
Wed 05:16:42 AM 33.9639 -117.9194 276° West 370 426 13,500 -1,200 Descending Los Angeles Center
Wed 05:17:42 AM 33.9744 -118.0350 276° West 365 420 12,300 -1,150 Descending Los Angeles Center
Wed 05:18:42 AM 33.9833 -118.1453 276° West 351 404 11,200 -1,050 Descending Los Angeles Center
Wed 05:19:42 AM 33.9919 -118.2433 275° West 323 372 10,200 -900 Descending Los Angeles Center
Wed 05:20:42 AM 33.9986 -118.3336 277° West 296 341 9,400 -1,050 Descending Los Angeles Center
Wed 05:21:42 AM 34.0075 -118.4217 272° West 278 320 8,100 -850 Descending Los Angeles Center
Wed 05:22:42 AM 34.0103 -118.5019 265° West 261 300 7,700 -650 Descending Los Angeles Center
Wed 05:23:42 AM 34.0047 -118.5719 264° West 238 274 6,800 -1,100 Descending Los Angeles Center
Wed 05:24:42 AM 33.9992 -118.6344 217° Southwest 211 243 5,500 -1,350 Descending Los Angeles Center
Wed 05:25:42 AM 33.9672 -118.6633 143° Southeast 144 166 4,100 -1,150 Descending Los Angeles Center
Wed 05:26:42 AM 33.9303 -118.6297 101° East 111 128 3,200 -800 Descending Los Angeles Center
Wed 05:27:42 AM 33.9211 -118.5719 83° East 123 142 2,500 -750 Descending Los Angeles Center
Wed 05:30:10 AM 33.9333 -118.4500 83° East 145 167 600 -770 Descending Southern California TRACON

Login

Don't have an account? Register now (free) for customized features, flight alerts, and more!